Time;durP1;ratioP1;P1;durP2;ratioP2;P2;SDS_P1;SDS_P2;PMS_P1;PMS_P2;Temp;Humidity;BMP_temperature;BMP_pressure;BME280_temperature;BME280_humidity;BME280_pressure;Samples;Min_cycle;Max_cycle;Signal;HPM_P1;HPM_P2
2022/03/06 00:01:11;;;;;;;79.75;71.32;;;;;;;1.12;100.00;101530.28;5034176;28;20485;-80
2022/03/06 00:03:38;;;;;;;76.15;68.78;;;;;;;1.03;100.00;101531.88;5034127;28;20053;-80
2022/03/06 00:06:05;;;;;;;73.63;66.07;;;;;;;1.10;100.00;101532.19;5032637;28;20481;-80
2022/03/06 00:08:31;;;;;;;80.28;70.95;;;;;;;1.01;100.00;101525.91;5034016;28;20049;-80
2022/03/06 00:10:58;;;;;;;77.82;69.95;;;;;;;1.14;100.00;101533.59;5034727;28;20053;-80
2022/03/06 00:13:26;;;;;;;81.50;73.07;;;;;;;0.93;100.00;101537.94;5034330;28;20045;-80
2022/03/06 00:15:54;;;;;;;79.85;71.80;;;;;;;0.90;100.00;101532.00;5034988;28;20049;-81
2022/03/06 00:18:22;;;;;;;78.07;69.90;;;;;;;0.99;100.00;101533.06;5034134;28;20119;-80
2022/03/06 00:20:49;;;;;;;88.07;79.20;;;;;;;0.82;100.00;101528.38;5034023;28;20046;-84
2022/03/06 00:23:16;;;;;;;81.22;73.43;;;;;;;0.75;100.00;101532.41;5034077;28;20111;-83
2022/03/06 00:25:43;;;;;;;81.15;72.97;;;;;;;0.68;100.00;101534.69;5034155;28;20061;-81
2022/03/06 00:28:10;;;;;;;70.68;63.33;;;;;;;0.78;100.00;101534.78;5034001;28;20049;-80
2022/03/06 00:30:36;;;;;;;68.40;61.60;;;;;;;1.15;100.00;101543.13;5033918;28;20115;-79
2022/03/06 00:33:05;;;;;;;69.25;62.38;;;;;;;0.85;100.00;101534.19;5033506;28;20527;-80
2022/03/06 00:35:33;;;;;;;71.50;64.20;;;;;;;0.87;100.00;101539.28;5033853;28;20065;-80
2022/03/06 00:38:00;;;;;;;70.38;63.33;;;;;;;0.80;100.00;101538.94;5032944;28;20049;-80
2022/03/06 00:40:27;;;;;;;72.72;65.72;;;;;;;0.80;100.00;101532.88;5033848;28;20459;-82
2022/03/06 00:42:54;;;;;;;76.57;69.28;;;;;;;0.79;100.00;101532.06;5033807;28;20060;-81
2022/03/06 00:45:21;;;;;;;76.10;68.80;;;;;;;0.78;100.00;101532.97;5033505;28;20057;-82
2022/03/06 00:47:48;;;;;;;70.82;63.55;;;;;;;0.73;100.00;101537.78;5033832;28;20049;-82
2022/03/06 00:50:14;;;;;;;74.10;66.72;;;;;;;0.75;100.00;101535.84;5033929;28;20444;-80
2022/03/06 00:52:42;;;;;;;69.28;62.58;;;;;;;0.69;100.00;101538.94;5033747;28;20057;-79
2022/03/06 00:55:10;;;;;;;65.25;59.03;;;;;;;0.64;100.00;101536.72;5033551;28;20049;-79
2022/03/06 00:57:37;;;;;;;68.55;61.75;;;;;;;0.57;100.00;101538.13;5033806;28;20049;-80
2022/03/06 01:00:05;;;;;;;73.45;66.32;;;;;;;0.58;100.00;101536.38;5033311;28;20049;-82
2022/03/06 01:02:32;;;;;;;65.50;58.95;;;;;;;0.58;100.00;101545.03;5033846;28;20084;-80
2022/03/06 01:04:59;;;;;;;66.93;60.13;;;;;;;0.50;100.00;101539.56;5033760;28;20425;-81
2022/03/06 01:07:26;;;;;;;73.40;66.50;;;;;;;0.53;100.00;101541.13;5032070;28;20049;-83
2022/03/06 01:09:54;;;;;;;71.35;64.57;;;;;;;0.50;100.00;101547.41;5033461;28;20053;-79
2022/03/06 01:12:21;;;;;;;66.95;59.95;;;;;;;0.49;100.00;101552.78;5033402;28;20540;-79
2022/03/06 01:14:48;;;;;;;64.22;57.53;;;;;;;0.46;100.00;101540.78;5033833;28;20053;-81
2022/03/06 01:17:15;;;;;;;67.32;60.60;;;;;;;0.43;100.00;101536.63;5033465;28;20457;-80
2022/03/06 01:19:42;;;;;;;68.10;61.58;;;;;;;0.43;100.00;101533.16;5033183;28;20118;-81
2022/03/06 01:22:09;;;;;;;63.40;56.92;;;;;;;0.45;100.00;101526.88;5033231;28;20045;-80
2022/03/06 01:24:36;;;;;;;65.00;58.45;;;;;;;0.43;100.00;101527.94;5034107;28;20053;-81
2022/03/06 01:27:04;;;;;;;62.45;56.50;;;;;;;0.36;100.00;101526.75;5033116;28;20088;-82
2022/03/06 01:29:31;;;;;;;63.67;57.65;;;;;;;0.21;100.00;101518.31;5033057;28;20041;-82
2022/03/06 01:31:58;;;;;;;63.20;56.85;;;;;;;0.26;100.00;101510.13;5033252;28;20061;-79
2022/03/06 01:34:25;;;;;;;68.13;61.33;;;;;;;0.14;100.00;101504.91;5033526;28;20046;-79
2022/03/06 01:36:51;;;;;;;65.07;58.75;;;;;;;0.34;100.00;101500.75;5033136;28;20061;-81
2022/03/06 01:39:18;;;;;;;64.72;58.55;;;;;;;0.21;100.00;101505.25;5033147;28;20536;-81
2022/03/06 01:41:45;;;;;;;61.30;55.22;;;;;;;0.26;100.00;101500.50;5033151;28;20493;-81
2022/03/06 01:44:16;;;;;;;63.88;57.92;;;;;;;0.17;100.00;101503.84;5033064;28;20057;-82
2022/03/06 01:46:46;;;;;;;62.47;56.38;;;;;;;0.19;100.00;101502.78;5033073;28;20079;-79
2022/03/06 01:49:13;;;;;;;62.25;56.63;;;;;;;0.18;100.00;101506.34;5034612;28;20114;-80
2022/03/06 01:51:40;;;;;;;64.07;57.58;;;;;;;0.21;100.00;101511.31;5036536;28;20115;-81
2022/03/06 01:54:07;;;;;;;62.90;57.20;;;;;;;0.11;100.00;101496.47;5036936;28;20057;-80
2022/03/06 01:56:34;;;;;;;60.35;54.75;;;;;;;0.14;100.00;101502.28;5036337;28;20049;-81
2022/03/06 01:59:01;;;;;;;57.78;52.15;;;;;;;0.14;100.00;101501.47;5036423;28;20482;-80
2022/03/06 02:01:30;;;;;;;59.70;53.92;;;;;;;0.11;100.00;101502.53;5036686;28;20053;-81
2022/03/06 02:03:57;;;;;;;60.30;54.92;;;;;;;0.04;100.00;101511.78;5036435;28;20478;-80
2022/03/06 02:06:24;;;;;;;60.42;54.97;;;;;;;0.05;100.00;101513.44;5035174;28;20457;-80
2022/03/06 02:08:51;;;;;;;62.72;56.13;;;;;;;0.06;100.00;101511.66;5036213;28;20046;-80
2022/03/06 02:11:18;;;;;;;59.90;54.20;;;;;;;0.06;100.00;101514.28;5036210;28;20123;-80
2022/03/06 02:13:45;;;;;;;62.95;57.53;;;;;;;0.02;100.00;101510.25;5036364;28;20478;-81
2022/03/06 02:16:12;;;;;;;59.08;53.85;;;;;;;-0.01;100.00;101519.13;5036487;28;20136;-80
2022/03/06 02:18:41;;;;;;;60.15;55.03;;;;;;;0.03;100.00;101514.50;5036140;28;20453;-80
2022/03/06 02:21:10;;;;;;;61.47;55.88;;;;;;;0.04;100.00;101511.78;5036142;28;20107;-80
2022/03/06 02:23:37;;;;;;;60.08;54.83;;;;;;;-0.07;100.00;101514.38;5036180;28;20367;-81
2022/03/06 02:26:04;;;;;;;58.10;53.08;;;;;;;-0.10;100.00;101507.59;5036098;28;20061;-80
2022/03/06 02:28:31;;;;;;;56.20;51.00;;;;;;;-0.08;100.00;101517.97;5036054;28;20045;-80
2022/03/06 02:30:58;;;;;;;56.35;51.28;;;;;;;-0.07;100.00;101519.59;5036418;28;20130;-80
2022/03/06 02:33:25;;;;;;;56.83;51.92;;;;;;;-0.09;100.00;101518.88;5036071;28;20053;-80
2022/03/06 02:35:52;;;;;;;55.88;51.00;;;;;;;-0.01;100.00;101519.13;5036173;28;20099;-82
2022/03/06 02:38:20;;;;;;;51.38;46.78;;;;;;;0.00;100.00;101520.81;5036290;28;20536;-81
2022/03/06 02:40:47;;;;;;;53.50;48.92;;;;;;;-0.01;100.00;101517.34;5035857;28;20099;-80
2022/03/06 02:43:15;;;;;;;59.83;54.92;;;;;;;0.03;100.00;101517.97;5035817;28;20057;-82
2022/03/06 02:45:43;;;;;;;59.92;55.20;;;;;;;0.06;100.00;101529.94;5035879;28;20053;-79
2022/03/06 02:48:11;;;;;;;56.45;51.78;;;;;;;0.05;100.00;101523.06;5035789;28;20053;-85
2022/03/06 02:50:39;;;;;;;56.50;51.05;;;;;;;0.07;100.00;101524.63;5035844;28;20460;-79
2022/03/06 02:53:10;;;;;;;60.47;55.03;;;;;;;0.13;100.00;101521.53;5035626;28;20456;-80
2022/03/06 02:55:39;;;;;;;56.45;52.17;;;;;;;0.41;100.00;101522.81;5035727;28;20049;-81
2022/03/06 02:58:06;;;;;;;54.65;50.50;;;;;;;0.13;100.00;101518.91;5035568;28;20053;-82
2022/03/06 03:03:03;;;;;;;51.35;47.30;;;;;;;-0.01;100.00;101521.75;5013260;28;20054;-79
2022/03/06 03:05:29;;;;;;;51.25;47.28;;;;;;;-0.02;100.00;101520.09;5015715;28;20045;-80
2022/03/06 03:07:57;;;;;;;51.35;47.35;;;;;;;-0.11;100.00;101518.19;5015752;28;20060;-79
2022/03/06 03:10:26;;;;;;;66.97;53.40;;;;;;;-0.08;100.00;101525.78;5015462;28;20057;-79
2022/03/06 03:12:57;;;;;;;55.03;50.97;;;;;;;-0.15;100.00;101519.34;5015514;28;20132;-79
2022/03/06 03:15:24;;;;;;;56.08;51.72;;;;;;;-0.09;100.00;101519.75;5015416;28;20120;-82
2022/03/06 03:17:51;;;;;;;51.58;47.88;;;;;;;-0.12;100.00;101519.97;5015461;28;20465;-79
2022/03/06 03:20:18;;;;;;;51.60;47.75;;;;;;;-0.13;100.00;101527.91;5015383;28;20464;-82
2022/03/06 03:22:45;;;;;;;54.13;50.33;;;;;;;-0.17;100.00;101521.28;5015034;28;20124;-79
2022/03/06 03:25:12;;;;;;;52.83;49.22;;;;;;;-0.12;100.00;101525.19;5015281;28;20062;-80
2022/03/06 03:27:40;;;;;;;51.78;47.97;;;;;;;-0.15;100.00;101521.97;5015455;28;20398;-80
2022/03/06 03:30:10;;;;;;;49.85;45.88;;;;;;;-0.21;100.00;101522.44;5015023;28;20049;-81
2022/03/06 03:32:37;;;;;;;56.38;52.15;;;;;;;-0.19;100.00;101528.38;5015256;28;20105;-81
2022/03/06 03:35:05;;;;;;;52.28;48.53;;;;;;;-0.26;100.00;101528.00;5015249;28;20054;-80
2022/03/06 03:37:32;;;;;;;49.90;45.97;;;;;;;-0.30;100.00;101530.03;5015193;28;20060;-82
2022/03/06 03:39:59;;;;;;;55.03;49.28;;;;;;;-0.42;100.00;101530.09;5014946;28;20120;-81
2022/03/06 03:42:26;;;;;;;50.30;46.50;;;;;;;-0.52;100.00;101528.16;5014697;28;20061;-80
2022/03/06 03:44:52;;;;;;;50.72;46.83;;;;;;;-0.51;100.00;101535.06;5014896;28;20057;-82
2022/03/06 03:47:21;;;;;;;52.22;48.63;;;;;;;-0.52;100.00;101541.22;5014870;28;20061;-80
2022/03/06 03:49:47;;;;;;;52.35;48.30;;;;;;;-0.60;100.00;101543.59;5014759;28;20050;-79
2022/03/06 03:52:14;;;;;;;51.45;47.90;;;;;;;-0.58;100.00;101541.66;5015156;28;20124;-82
2022/03/06 03:54:41;;;;;;;49.80;45.83;;;;;;;-0.60;100.00;101543.59;5014460;28;20116;-80
2022/03/06 03:57:08;;;;;;;50.20;46.25;;;;;;;-0.58;100.00;101544.28;5015017;28;20053;-79
2022/03/06 03:59:35;;;;;;;52.88;48.45;;;;;;;-0.61;100.00;101554.13;5014347;28;20050;-80
2022/03/06 04:02:02;;;;;;;51.17;47.15;;;;;;;-0.65;100.00;101550.09;5015052;28;20144;-79
2022/03/06 04:04:30;;;;;;;49.22;45.55;;;;;;;-0.68;100.00;101545.09;5014365;28;20050;-80
2022/03/06 04:06:57;;;;;;;48.90;45.15;;;;;;;-0.75;100.00;101555.16;5014236;28;20049;-80
2022/03/06 04:09:24;;;;;;;47.80;44.28;;;;;;;-0.80;100.00;101550.25;5014425;28;20046;-81
2022/03/06 04:11:51;;;;;;;53.25;49.15;;;;;;;-0.81;100.00;101552.97;5014081;28;20115;-79
2022/03/06 04:14:18;;;;;;;57.72;53.28;;;;;;;-0.77;100.00;101551.81;5014142;28;20454;-79
2022/03/06 04:16:45;;;;;;;50.50;46.60;;;;;;;-0.98;100.00;101549.81;5014043;28;20057;-79
2022/03/06 04:19:11;;;;;;;54.45;50.55;;;;;;;-0.96;100.00;101554.91;5014161;28;20050;-80
2022/03/06 04:21:40;;;;;;;55.60;51.53;;;;;;;-0.98;100.00;101549.81;5014359;28;20053;-79
2022/03/06 04:24:07;;;;;;;55.63;51.90;;;;;;;-0.98;100.00;101551.59;5014110;28;20505;-81
2022/03/06 04:26:35;;;;;;;51.83;47.92;;;;;;;-0.96;100.00;101542.72;5014188;28;20050;-80
2022/03/06 04:29:01;;;;;;;53.45;49.33;;;;;;;-0.99;100.00;101548.16;5014015;28;20045;-80
2022/03/06 04:31:28;;;;;;;55.35;51.15;;;;;;;-0.93;100.00;101552.09;5014300;28;20053;-80
2022/03/06 04:33:55;;;;;;;58.28;53.65;;;;;;;-1.09;100.00;101549.75;5013914;28;20132;-80
2022/03/06 04:36:22;;;;;;;57.17;52.33;;;;;;;-1.06;100.00;101544.31;5014121;28;20104;-82
2022/03/06 04:38:50;;;;;;;55.70;50.63;;;;;;;-1.16;100.00;101543.31;5014025;28;20054;-84
2022/03/06 04:41:17;;;;;;;53.97;49.53;;;;;;;-1.20;100.00;101544.47;5013878;28;20053;-80
2022/03/06 04:43:44;;;;;;;57.00;52.60;;;;;;;-1.02;100.00;101550.16;5013983;28;20053;-82
2022/03/06 04:46:11;;;;;;;53.70;49.45;;;;;;;-1.17;100.00;101558.13;5013871;28;20466;-80
2022/03/06 04:48:38;;;;;;;52.03;47.58;;;;;;;-1.19;100.00;101546.13;5014091;28;20104;-82
2022/03/06 04:51:05;;;;;;;50.78;46.75;;;;;;;-1.28;100.00;101544.19;5014125;28;20108;-83
2022/03/06 04:53:32;;;;;;;55.92;51.30;;;;;;;-1.30;100.00;101553.88;5013754;28;20057;-79
2022/03/06 04:56:01;;;;;;;55.38;50.92;;;;;;;-1.25;100.00;101559.59;5014087;28;20053;-80
2022/03/06 04:58:27;;;;;;;55.38;50.85;;;;;;;-1.37;100.00;101548.25;5014019;28;20116;-82
2022/03/06 05:00:54;;;;;;;53.33;48.65;;;;;;;-1.32;100.00;101559.22;5014184;28;20054;-78
2022/03/06 05:03:21;;;;;;;48.17;44.17;;;;;;;-1.27;100.00;101559.72;5013919;28;20062;-81
2022/03/06 05:05:48;;;;;;;52.42;47.80;;;;;;;-1.32;100.00;101558.38;5013835;28;20049;-82
2022/03/06 05:08:15;;;;;;;53.17;48.38;;;;;;;-1.27;100.00;101566.69;5013565;28;20112;-82
2022/03/06 05:10:42;;;;;;;52.65;48.30;;;;;;;-1.28;100.00;101570.25;5013504;28;20046;-80
2022/03/06 05:13:11;;;;;;;51.72;47.58;;;;;;;-0.89;100.00;101563.13;5013502;28;20473;-80
2022/03/06 05:15:38;;;;;;;51.63;47.35;;;;;;;-1.23;100.00;101565.53;5013874;28;20192;-80
2022/03/06 05:18:05;;;;;;;54.25;49.65;;;;;;;-1.24;100.00;101564.72;5013813;28;20129;-82
2022/03/06 05:20:31;;;;;;;55.50;51.08;;;;;;;-1.07;100.00;101567.88;5013652;28;20473;-80
2022/03/06 05:22:58;;;;;;;53.85;49.65;;;;;;;-1.13;100.00;101576.97;5013522;28;20050;-80
2022/03/06 05:25:25;;;;;;;50.88;46.47;;;;;;;-1.05;100.00;101574.66;5016796;28;20061;-82
2022/03/06 05:27:52;;;;;;;50.28;46.17;;;;;;;-1.00;100.00;101580.41;5017615;28;20050;-82
2022/03/06 05:30:20;;;;;;;51.65;47.50;;;;;;;-1.02;100.00;101579.66;5017036;28;20486;-80
2022/03/06 05:32:47;;;;;;;51.35;47.15;;;;;;;-0.95;100.00;101580.06;5017314;28;20112;-83
2022/03/06 05:35:13;;;;;;;51.22;46.80;;;;;;;-0.90;100.00;101582.34;5017243;28;20058;-80
2022/03/06 05:37:40;;;;;;;48.33;44.33;;;;;;;-0.92;100.00;101583.25;5017242;28;20050;-79
2022/03/06 05:40:10;;;;;;;52.70;48.30;;;;;;;-0.84;100.00;101577.50;5017418;28;20057;-80
2022/03/06 05:42:37;;;;;;;52.22;47.95;;;;;;;-0.79;100.00;101578.00;5016826;28;20461;-80
2022/03/06 05:45:04;;;;;;;52.38;48.13;;;;;;;-0.63;100.00;101575.13;5016937;28;20540;-79
2022/03/06 05:47:32;;;;;;;52.47;48.08;;;;;;;-0.60;100.00;101574.06;5016889;28;20116;-81
2022/03/06 05:49:59;;;;;;;57.40;52.20;;;;;;;-0.51;100.00;101578.63;5016750;28;20509;-80
2022/03/06 05:52:25;;;;;;;54.03;49.78;;;;;;;-0.43;100.00;101573.63;5016755;28;20054;-79
2022/03/06 05:54:52;;;;;;;53.45;48.65;;;;;;;-0.48;100.00;101579.22;5017074;28;20057;-80
2022/03/06 05:57:19;;;;;;;50.88;46.70;;;;;;;-0.35;100.00;101584.34;5016913;28;20046;-79
2022/03/06 05:59:46;;;;;;;51.10;46.72;;;;;;;-0.05;100.00;101581.22;5016948;28;20054;-82
2022/03/06 06:02:13;;;;;;;56.67;51.67;;;;;;;0.15;100.00;101589.31;5017386;28;20092;-80
2022/03/06 06:04:47;;;;;;;53.13;48.92;;;;;;;-0.07;100.00;101587.50;5016822;28;20144;-79
2022/03/06 06:07:14;;;;;;;51.20;47.00;;;;;;;-0.04;100.00;101590.72;5016720;28;20065;-83
2022/03/06 06:09:41;;;;;;;51.30;47.35;;;;;;;-0.03;100.00;101595.00;5016762;28;20127;-80
2022/03/06 06:12:09;;;;;;;53.30;49.30;;;;;;;0.23;100.00;101589.59;5016925;28;20469;-80
2022/03/06 06:14:36;;;;;;;49.75;46.08;;;;;;;0.09;100.00;101588.03;5016366;28;20054;-81
2022/03/06 06:17:03;;;;;;;53.17;49.08;;;;;;;0.03;100.00;101595.47;5016909;28;20117;-81
2022/03/06 06:19:36;;;;;;;53.17;49.30;;;;;;;0.26;100.00;101591.97;5016684;28;20112;-81
2022/03/06 06:22:05;;;;;;;52.50;48.00;;;;;;;1.01;100.00;101580.03;5016400;28;20050;-83
2022/03/06 06:24:32;;;;;;;49.65;45.92;;;;;;;0.06;100.00;101590.88;5016175;28;20467;-83
2022/03/06 06:26:59;;;;;;;52.22;48.03;;;;;;;0.30;100.00;101592.56;5016432;28;20049;-80
2022/03/06 06:29:26;;;;;;;49.35;45.67;;;;;;;0.51;100.00;101584.84;5016367;28;20116;-80
2022/03/06 06:31:53;;;;;;;51.05;46.92;;;;;;;1.50;100.00;101582.13;5016143;28;20053;-81
2022/03/06 06:34:20;;;;;;;51.47;47.35;;;;;;;0.41;100.00;101588.16;5016376;28;20049;-80
2022/03/06 06:36:47;;;;;;;64.60;55.35;;;;;;;1.36;100.00;101587.66;5016056;28;20050;-83
2022/03/06 06:39:15;;;;;;;50.50;46.58;;;;;;;1.14;100.00;101593.78;5016342;28;20127;-83
2022/03/06 06:41:43;;;;;;;81.10;65.68;;;;;;;0.25;100.00;101598.16;5016205;28;20058;-81
2022/03/06 06:44:10;;;;;;;55.85;50.70;;;;;;;0.34;100.00;101605.28;5016194;28;20103;-79
2022/03/06 06:46:37;;;;;;;60.08;54.53;;;;;;;0.35;100.00;101604.31;5016115;28;20050;-80
2022/03/06 06:49:04;;;;;;;57.45;52.65;;;;;;;0.52;100.00;101610.06;5015893;28;20050;-82
2022/03/06 06:51:31;;;;;;;51.03;47.05;;;;;;;0.50;100.00;101604.09;5016154;28;20050;-81
2022/03/06 06:53:58;;;;;;;50.72;46.67;;;;;;;1.48;100.00;101599.75;5016095;28;20091;-80
2022/03/06 06:56:26;;;;;;;50.20;46.28;;;;;;;0.68;100.00;101603.50;5015652;28;20449;-82
2022/03/06 06:58:53;;;;;;;49.00;44.90;;;;;;;0.45;100.00;101600.06;5016030;28;20057;-79
2022/03/06 07:01:20;;;;;;;51.58;47.40;;;;;;;0.73;100.00;101604.91;5016145;28;20045;-80
2022/03/06 07:03:47;;;;;;;50.10;46.10;;;;;;;0.66;100.00;101594.09;5015568;28;20482;-82
2022/03/06 07:06:13;;;;;;;48.72;44.47;;;;;;;0.96;100.00;101596.09;5015666;28;20513;-80
2022/03/06 07:08:40;;;;;;;47.22;43.70;;;;;;;0.59;100.00;101608.63;5015873;28;20061;-80
2022/03/06 07:11:07;;;;;;;51.22;47.22;;;;;;;0.59;100.00;101600.78;5015772;28;20053;-81
2022/03/06 07:13:35;;;;;;;53.13;48.90;;;;;;;0.64;100.00;101606.47;5015599;28;20049;-82
2022/03/06 07:16:03;;;;;;;53.60;49.75;;;;;;;0.58;100.00;101594.72;5015676;28;20046;-80
2022/03/06 07:18:30;;;;;;;51.05;47.22;;;;;;;0.90;100.00;101593.97;5015201;28;20494;-78
2022/03/06 07:20:57;;;;;;;50.65;46.80;;;;;;;1.14;100.00;101599.84;5015357;28;20461;-79
2022/03/06 07:23:23;;;;;;;48.72;45.28;;;;;;;1.20;100.00;101595.09;5015258;28;20049;-81
2022/03/06 07:25:50;;;;;;;51.03;47.30;;;;;;;1.15;100.00;101598.09;5015411;28;20046;-80
2022/03/06 07:28:17;;;;;;;46.78;43.28;;;;;;;0.94;100.00;101591.94;5014984;28;20049;-80
2022/03/06 07:30:45;;;;;;;46.88;43.40;;;;;;;0.99;100.00;101592.41;5015371;28;20043;-81
2022/03/06 07:33:12;;;;;;;47.45;43.72;;;;;;;1.10;100.00;101593.22;5014910;28;20393;-79
2022/03/06 07:35:39;;;;;;;47.70;44.08;;;;;;;1.39;100.00;101592.63;5015263;28;20140;-79
2022/03/06 07:38:05;;;;;;;49.58;45.78;;;;;;;1.56;100.00;101592.09;5015043;28;20053;-81
2022/03/06 07:40:32;;;;;;;52.63;48.20;;;;;;;1.68;100.00;101592.88;5015154;28;20123;-80
2022/03/06 07:42:59;;;;;;;52.10;48.20;;;;;;;2.43;100.00;101598.84;5014799;28;20058;-82
2022/03/06 07:45:26;;;;;;;68.10;61.15;;;;;;;1.43;100.00;101588.00;5015011;28;20057;-80
2022/03/06 07:47:54;;;;;;;71.97;57.30;;;;;;;1.62;100.00;101592.56;5014500;28;20057;-80
2022/03/06 07:50:21;;;;;;;49.28;44.95;;;;;;;2.49;100.00;101593.91;5014795;28;20050;-80
2022/03/06 07:52:48;;;;;;;56.10;50.55;;;;;;;2.09;100.00;101593.84;5015005;28;20210;-80
2022/03/06 07:55:15;;;;;;;50.40;46.13;;;;;;;2.59;100.00;101583.44;5015240;28;20089;-82
2022/03/06 07:57:42;;;;;;;50.70;46.83;;;;;;;2.08;100.00;101586.09;5014750;28;20057;-81
2022/03/06 08:00:11;;;;;;;52.00;47.65;;;;;;;2.01;100.00;101588.41;5014878;28;20057;-79
2022/03/06 08:02:38;;;;;;;47.30;43.50;;;;;;;2.01;100.00;101591.03;5014689;28;20135;-79
2022/03/06 08:05:08;;;;;;;47.17;43.70;;;;;;;2.48;100.00;101588.78;5013536;28;20054;-83
2022/03/06 08:07:35;;;;;;;54.00;49.80;;;;;;;2.29;100.00;101584.28;5013600;28;20449;-79
2022/03/06 08:10:04;;;;;;;49.88;46.05;;;;;;;2.37;100.00;101586.28;5013995;28;20506;-80
2022/03/06 08:12:31;;;;;;;51.75;47.95;;;;;;;1.91;100.00;101590.16;5013968;28;20050;-80
2022/03/06 08:14:57;;;;;;;52.25;48.45;;;;;;;1.86;100.00;101584.47;5013857;28;20484;-82
2022/03/06 08:17:24;;;;;;;50.05;46.28;;;;;;;2.45;100.00;101594.28;5013385;28;20411;-82
2022/03/06 08:19:52;;;;;;;54.53;50.42;;;;;;;1.85;100.00;101586.25;5013892;28;20062;-80
2022/03/06 08:22:22;;;;;;;56.53;52.03;;;;;;;2.09;100.00;101582.50;5013779;28;20081;-79
2022/03/06 08:24:49;;;;;;;51.58;47.80;;;;;;;1.98;100.00;101592.13;5013580;28;20053;-81
2022/03/06 08:27:16;;;;;;;48.13;44.53;;;;;;;2.57;100.00;101590.59;5013609;28;20046;-81
2022/03/06 08:29:42;;;;;;;48.83;45.13;;;;;;;2.44;100.00;101590.84;5013745;28;20050;-79
2022/03/06 08:32:09;;;;;;;48.28;44.63;;;;;;;2.34;100.00;101589.16;5013561;28;20045;-80
2022/03/06 08:34:36;;;;;;;50.22;46.63;;;;;;;2.63;100.00;101594.50;5013591;28;20131;-80
2022/03/06 08:37:04;;;;;;;51.50;47.83;;;;;;;2.71;100.00;101587.63;5013661;28;20054;-79
2022/03/06 08:39:32;;;;;;;50.08;46.65;;;;;;;2.33;100.00;101587.47;5013719;28;20050;-80
2022/03/06 08:41:59;;;;;;;53.97;50.20;;;;;;;2.69;100.00;101571.22;5013179;28;20057;-82
2022/03/06 08:44:26;;;;;;;54.72;50.92;;;;;;;3.11;100.00;101565.75;5013306;28;20116;-80
2022/03/06 08:46:52;;;;;;;51.78;48.40;;;;;;;3.92;100.00;101570.72;5013087;28;20049;-80
2022/03/06 08:49:19;;;;;;;54.83;51.22;;;;;;;3.60;100.00;101579.75;5013399;28;20062;-81
2022/03/06 08:51:46;;;;;;;52.92;49.15;;;;;;;3.49;100.00;101572.00;5013410;28;20107;-83
2022/03/06 08:54:13;;;;;;;51.00;47.38;;;;;;;4.38;100.00;101576.94;5013223;28;20116;-80
2022/03/06 08:56:41;;;;;;;51.92;48.33;;;;;;;3.82;100.00;101575.16;5013332;28;20391;-80
2022/03/06 08:59:07;;;;;;;52.75;49.15;;;;;;;3.60;100.00;101579.75;5014437;28;20061;-80
2022/03/06 09:01:41;;;;;;;53.20;48.92;;;;;;;3.60;100.00;101585.00;4755362;28;8119857;-79
2022/03/06 09:04:15;;;;;;;51.53;47.88;;;;;;;3.57;100.00;101582.66;5018181;28;20699;-82
2022/03/06 09:06:42;;;;;;;50.78;47.25;;;;;;;3.35;100.00;101588.16;5017938;28;20520;-80
2022/03/06 09:09:09;;;;;;;47.72;44.25;;;;;;;3.34;100.00;101587.34;5017804;28;20053;-79
2022/03/06 09:11:36;;;;;;;52.65;48.72;;;;;;;2.86;100.00;101592.50;5017522;28;20120;-80
2022/03/06 09:14:04;;;;;;;47.90;44.28;;;;;;;2.87;100.00;101595.00;5017551;28;20076;-80
2022/03/06 09:16:31;;;;;;;49.42;45.22;;;;;;;2.78;100.00;101581.84;5017987;28;20127;-82
2022/03/06 09:18:57;;;;;;;47.75;44.35;;;;;;;2.77;100.00;101591.53;5017316;28;20526;-80
2022/03/06 09:21:24;;;;;;;51.95;48.35;;;;;;;2.92;100.00;101586.72;5017597;28;20406;-80
2022/03/06 09:23:51;;;;;;;50.65;47.10;;;;;;;2.94;100.00;101577.75;5017390;28;20041;-82
2022/03/06 09:26:18;;;;;;;51.25;47.90;;;;;;;3.02;100.00;101584.94;5017782;28;20053;-80
2022/03/06 09:28:44;;;;;;;51.72;47.85;;;;;;;3.18;100.00;101574.75;5017456;28;20053;-80
2022/03/06 09:31:13;;;;;;;52.50;48.53;;;;;;;3.36;100.00;101567.03;5017454;28;20108;-81
2022/03/06 09:33:40;;;;;;;51.08;47.80;;;;;;;3.52;100.00;101574.34;5018269;28;20054;-80
2022/03/06 09:36:06;;;;;;;49.78;46.38;;;;;;;4.43;100.00;101571.25;5018006;28;20454;-79
2022/03/06 09:38:33;;;;;;;49.33;46.03;;;;;;;4.54;100.00;101564.00;5017633;28;20441;-81
2022/03/06 09:41:04;;;;;;;50.20;46.90;;;;;;;3.92;100.00;101568.09;5017695;28;20115;-80
2022/03/06 09:43:32;;;;;;;51.03;47.58;;;;;;;4.49;100.00;101568.88;5017731;28;20112;-80
2022/03/06 09:46:04;;;;;;;52.17;48.40;;;;;;;4.13;100.00;101567.91;5017491;28;20050;-81
2022/03/06 09:48:32;;;;;;;54.05;50.25;;;;;;;3.75;100.00;101572.28;5017311;28;20145;-81
2022/03/06 09:51:02;;;;;;;54.17;50.45;;;;;;;3.69;100.00;101564.91;5017507;28;20057;-79
2022/03/06 09:53:29;;;;;;;55.60;51.70;;;;;;;3.41;100.00;101561.34;5017034;28;20140;-82
2022/03/06 09:55:56;;;;;;;53.47;49.83;;;;;;;3.28;100.00;101559.00;5017035;28;20057;-82
2022/03/06 09:58:23;;;;;;;53.03;49.63;;;;;;;3.43;100.00;101560.25;5017097;28;20054;-83
2022/03/06 10:00:50;;;;;;;52.80;49.38;;;;;;;3.48;100.00;101551.97;5016950;28;20053;-81
2022/03/06 10:03:18;;;;;;;52.17;48.70;;;;;;;3.53;100.00;101548.91;5017614;28;20529;-80
2022/03/06 10:05:46;;;;;;;50.95;47.65;;;;;;;4.36;100.00;101544.72;5017089;28;20124;-80
2022/03/06 10:08:22;;;;;;;53.90;50.10;;;;;;;3.63;100.00;101545.31;5017382;28;20049;-80
2022/03/06 10:10:51;;;;;;;49.30;46.30;;;;;;;3.74;100.00;101535.63;5016201;28;20046;-82
2022/03/06 10:13:22;;;;;;;48.97;45.97;;;;;;;4.68;100.00;101525.00;5017004;28;20070;-80
2022/03/06 10:16:00;;;;;;;51.50;48.20;;;;;;;3.58;100.00;101533.56;5017249;28;20055;-79
2022/03/06 10:18:31;;;;;;;50.80;47.42;;;;;;;4.28;100.00;101528.81;5016980;28;20144;-82
2022/03/06 10:21:04;;;;;;;52.28;48.97;;;;;;;3.84;100.00;101525.91;5016388;28;20521;-82
2022/03/06 10:23:31;;;;;;;51.58;48.08;;;;;;;4.06;100.00;101528.22;5016433;28;20123;-79
2022/03/06 10:26:03;;;;;;;48.50;45.15;;;;;;;4.07;100.00;101527.22;5016765;28;20049;-80
2022/03/06 10:28:29;;;;;;;48.78;45.38;;;;;;;3.78;100.00;101521.22;5016685;28;20054;-81
2022/03/06 10:31:04;;;;;;;48.38;45.33;;;;;;;3.70;100.00;101521.13;5016434;28;20058;-80
2022/03/06 10:33:31;;;;;;;48.97;45.78;;;;;;;3.77;100.00;101517.75;5016150;28;20505;-80
2022/03/06 10:35:58;;;;;;;51.22;47.75;;;;;;;3.79;100.00;101512.38;5016531;28;20140;-81
2022/03/06 10:38:31;;;;;;;49.05;46.00;;;;;;;4.10;100.00;101508.53;5016440;28;20402;-80
2022/03/06 10:40:59;;;;;;;50.05;46.58;;;;;;;4.19;100.00;101495.50;5016217;28;20082;-80
2022/03/06 10:43:29;;;;;;;46.50;43.60;;;;;;;4.76;100.00;101490.91;5016603;28;20107;-80
2022/03/06 10:46:07;;;;;;;49.45;46.35;;;;;;;4.45;100.00;101491.22;5016366;28;20053;-79
2022/03/06 10:48:33;;;;;;;50.10;47.05;;;;;;;4.22;100.00;101493.41;5016608;28;20124;-80
2022/03/06 10:51:01;;;;;;;49.65;46.45;;;;;;;3.93;100.00;101490.88;5016117;28;20049;-81
2022/03/06 10:53:30;;;;;;;51.00;47.60;;;;;;;4.33;100.00;101490.59;5016278;28;20522;-80
2022/03/06 10:56:05;;;;;;;50.00;46.72;;;;;;;4.08;100.00;101481.53;5015983;28;20046;-82
2022/03/06 10:58:33;;;;;;;49.30;46.22;;;;;;;3.80;100.00;101493.00;5015904;28;20124;-82
2022/03/06 11:01:00;;;;;;;49.72;46.42;;;;;;;3.76;100.00;101484.59;5015796;28;20111;-82
2022/03/06 11:03:27;;;;;;;49.63;46.45;;;;;;;3.99;100.00;101486.84;5016618;28;20062;-79
2022/03/06 11:05:54;;;;;;;53.63;50.05;;;;;;;4.04;100.00;101482.00;5015647;28;20564;-79
2022/03/06 11:08:21;;;;;;;48.05;44.88;;;;;;;4.44;100.00;101479.03;5015523;28;20120;-79
2022/03/06 11:10:50;;;;;;;48.78;45.63;;;;;;;4.27;100.00;101483.28;5015461;28;20054;-79